Portada
METAR-TAF:

METAR-TAF

Aeropuertos :

Aeropuerto Zenata

Tremecén, Argelia

latitud: 35-01N, longitud: 001-28W, altitud: 247 m

Observación

El informe se hizo hace 30 minutos, a las 22:00 UTC
Viento 2 kt del este-sureste
Temperatura 16°C
Humedad 55%
Presión 1019 hPa
Visibilidad 10 km o más
sin nubes por debajo de 1500 m y sin presencia de cumulonimbus.

METAR: DAON 062200Z 11002KT CAVOK 16/07 Q1019

Hora: 23:30 (22:30 UTC)

Pronóstico

El informe se hizo hace 5 horas y 30 minutos, a las 17:00 UTC
Pronóstico válido del 06 a las 18 UTC al 07 a las 18 UTC
Viento 5 kt del norte-noroeste
Visibilidad 10 km o más
sin nubes por debajo de 1500 m y sin presencia de cumulonimbus.
Evolucionando progresivamente
del 06 a las 19 UTC al 06 a las 21 UTC
Viento 2 kt con dirección variable
Evolucionando progresivamente
del 07 a las 09 UTC al 07 a las 12 UTC
Viento 8 kt del norte

TAF: DAON 061700Z 0618/0718 34005KT CAVOK BECMG 0619/0621 VRB02KT BECMG 0709/0712 35008KT

Observaciones y pronósticos meteorológicos de más de 4000 aeropuertos (mensajes METAR y TAF).

Los puntos amarillos y rojos representan las estaciones disponibles.

Ponga el ratón en el punto deseado para ver el nombre de la estación.

Haga clic para ver las observaciones y los pronósticos meteorológicos.

Para cambiar el mapa : haga clic en los botones verdes con una cruz de color negro para hacer un zoom, en el botón verde con un guión para alejar o en las flechas verdes para mapas adyacentes.


METAR-TAF: